Time;durP1;ratioP1;P1;durP2;ratioP2;P2;SDS_P1;SDS_P2;PMS_P1;PMS_P2;Temp;Humidity;BMP_temperature;BMP_pressure;BME280_temperature;BME280_humidity;BME280_pressure;Samples;Min_cycle;Max_cycle;Signal;HPM_P1;HPM_P2
2021/12/02 00:00:35;;;;;;;1999.90;999.90;;;;;;;7.37;59.06;98300.03;15531087;28;20470;-59
2021/12/02 00:08:09;;;;;;;1999.90;999.90;;;;;;;7.27;59.13;98295.09;15549256;28;20069;-60
2021/12/02 00:15:47;;;;;;;1999.90;999.90;;;;;;;7.49;59.17;98314.50;15551769;28;20048;-59
2021/12/02 00:23:30;;;;;;;1999.90;999.90;;;;;;;7.35;59.92;98319.81;15546603;28;20053;-60
2021/12/02 00:31:02;;;;;;;1999.90;999.90;;;;;;;7.37;59.47;98347.97;15557186;28;20089;-60
2021/12/02 00:38:37;;;;;;;1999.90;999.90;;;;;;;7.37;59.71;98336.06;15556960;28;20056;-60
2021/12/02 00:46:12;;;;;;;1999.90;999.90;;;;;;;7.05;59.95;98336.28;15540180;28;20056;-59
2021/12/02 00:53:51;;;;;;;1999.90;999.90;;;;;;;7.10;59.52;98376.81;15540522;28;20050;-60
2021/12/02 01:01:27;;;;;;;1999.90;999.90;;;;;;;6.76;59.75;98375.69;15557061;28;20053;-60
2021/12/02 01:09:01;;;;;;;1999.90;999.90;;;;;;;7.15;59.64;98390.34;15556567;28;20103;-58
2021/12/02 01:16:34;;;;;;;1999.90;999.90;;;;;;;7.14;59.63;98414.50;15554181;28;20089;-60
2021/12/02 01:24:12;;;;;;;1999.90;999.90;;;;;;;6.87;66.15;98485.63;15555227;28;20034;-61
2021/12/02 01:31:48;;;;;;;1999.90;999.90;;;;;;;5.85;73.08;98498.56;15555053;28;20044;-58
2021/12/02 01:39:23;;;;;;;1999.90;999.90;;;;;;;5.31;75.92;98501.00;15556656;28;20038;-59
2021/12/02 01:46:58;;;;;;;1999.90;999.90;;;;;;;5.06;75.90;98494.78;15554621;28;20069;-59
2021/12/02 01:54:41;;;;;;;1999.90;999.90;;;;;;;5.36;74.57;98509.06;15555175;28;20104;-60
2021/12/02 02:02:20;;;;;;;1999.90;999.90;;;;;;;4.86;76.25;98496.56;15555300;28;20121;-60
2021/12/02 02:09:54;;;;;;;1999.90;999.90;;;;;;;5.25;77.26;98506.00;15554411;28;20125;-59
2021/12/02 02:17:29;;;;;;;1999.90;999.90;;;;;;;5.08;77.50;98523.66;15554236;28;20038;-60
2021/12/02 02:25:10;;;;;;;1999.90;999.90;;;;;;;4.98;77.08;98501.25;15550362;28;20045;-59
2021/12/02 02:32:45;;;;;;;1999.90;999.90;;;;;;;4.89;74.77;98504.13;15542063;28;20064;-61
2021/12/02 02:40:20;;;;;;;1999.90;999.90;;;;;;;5.26;74.60;98518.69;15551133;28;20125;-61
2021/12/02 02:47:53;;;;;;;1999.90;999.90;;;;;;;5.14;73.75;98522.28;15550540;28;20519;-61
2021/12/02 02:55:27;;;;;;;1999.90;999.90;;;;;;;5.21;72.62;98539.09;15565784;28;20049;-57
2021/12/02 03:03:14;;;;;;;1999.90;999.90;;;;;;;5.07;74.75;98541.41;15549038;28;20050;-60
2021/12/02 03:10:51;;;;;;;1999.90;999.90;;;;;;;5.30;73.70;98552.75;15550076;28;20033;-58
2021/12/02 03:18:24;;;;;;;1999.90;999.90;;;;;;;5.40;71.06;98560.56;15550124;28;20259;-56
2021/12/02 03:26:00;;;;;;;1999.90;999.90;;;;;;;5.63;69.88;98580.19;15531366;28;20497;-57
2021/12/02 03:33:33;;;;;;;1999.90;999.90;;;;;;;5.43;70.15;98601.34;15547887;28;20637;-57
2021/12/02 03:41:08;;;;;;;1999.90;999.90;;;;;;;5.34;70.73;98595.16;15547908;28;20160;-58
2021/12/02 03:48:41;;;;;;;1999.90;999.90;;;;;;;5.51;70.59;98614.22;15550955;28;20069;-58
2021/12/02 03:56:16;;;;;;;1999.90;999.90;;;;;;;5.39;69.82;98605.16;15560467;28;20054;-60
2021/12/02 04:03:49;;;;;;;1999.90;999.90;;;;;;;5.28;69.95;98609.56;15560542;28;20069;-60
2021/12/02 04:11:30;;;;;;;1999.90;999.90;;;;;;;5.05;70.81;98625.84;15559706;28;20125;-58
2021/12/02 04:19:04;;;;;;;1999.90;999.90;;;;;;;5.17;69.67;98634.13;15573327;28;20140;-60
2021/12/02 04:26:40;;;;;;;;;;;;;;;5.26;66.86;98645.88;15543765;28;20046;-59
2021/12/02 04:34:13;;;;;;;1999.90;999.90;;;;;;;5.16;67.29;98665.69;15558171;28;19931;-61
2021/12/02 04:41:46;;;;;;;1999.90;999.90;;;;;;;5.10;66.63;98678.13;15558858;28;20066;-60
2021/12/02 04:49:19;;;;;;;1999.90;999.90;;;;;;;4.88;66.48;98688.47;15557098;28;20042;-59
2021/12/02 04:56:53;;;;;;;1999.90;999.90;;;;;;;4.79;65.95;98698.03;15496608;28;20042;-60
2021/12/02 05:04:26;;;;;;;1999.90;999.90;;;;;;;4.90;65.46;98705.53;15494850;28;20043;-60
2021/12/02 05:12:00;;;;;;;1999.90;999.90;;;;;;;4.97;65.84;98712.44;15497744;28;20038;-59
2021/12/02 05:19:33;;;;;;;1999.90;999.90;;;;;;;4.99;65.71;98708.19;15496785;28;20062;-57
2021/12/02 05:27:07;;;;;;;1999.90;999.90;;;;;;;5.09;64.81;98717.97;15530501;28;20091;-58
2021/12/02 05:34:46;;;;;;;1999.90;999.90;;;;;;;5.22;63.82;98725.94;15562764;28;20088;-57
2021/12/02 05:42:20;;;;;;;1999.90;999.90;;;;;;;5.36;64.63;98742.19;15553798;28;20355;-60
2021/12/02 05:50:01;;;;;;;1999.90;999.90;;;;;;;4.99;65.61;98762.66;15554418;28;20498;-57
2021/12/02 05:57:35;;;;;;;1999.90;999.90;;;;;;;5.07;64.79;98779.13;15554606;28;20069;-61
2021/12/02 06:05:08;;;;;;;1999.90;999.90;;;;;;;4.90;63.26;98780.16;15552130;28;20034;-61
2021/12/02 06:12:45;;;;;;;1999.90;999.90;;;;;;;5.29;62.76;98800.00;15552893;28;20042;-58
2021/12/02 06:20:18;;;;;;;1999.90;999.90;;;;;;;4.93;65.56;98807.09;15535223;28;20134;-60
2021/12/02 06:27:54;;;;;;;1999.90;999.90;;;;;;;5.01;67.25;98835.00;15550958;28;20042;-58
2021/12/02 06:35:28;;;;;;;1999.90;999.90;;;;;;;4.88;67.92;98850.72;15551382;28;20046;-58
2021/12/02 06:43:02;;;;;;;1999.90;999.90;;;;;;;5.04;67.84;98868.28;15551791;28;20121;-59
2021/12/02 06:50:36;;;;;;;1999.90;999.90;;;;;;;4.67;68.57;98878.38;15549333;28;20518;-58
2021/12/02 06:58:10;;;;;;;1999.90;999.90;;;;;;;4.61;68.56;98899.91;15532618;28;20141;-58
2021/12/02 07:05:43;;;;;;;1999.90;999.90;;;;;;;4.62;67.19;98904.28;15532459;28;20142;-59
2021/12/02 07:13:17;;;;;;;1999.90;999.90;;;;;;;4.46;66.86;98930.06;15547975;28;20356;-56
2021/12/02 07:20:50;;;;;;;1999.90;999.90;;;;;;;4.16;65.83;98932.03;15537523;28;20422;-58
2021/12/02 07:28:24;;;;;;;1999.90;999.90;;;;;;;4.51;65.25;98952.78;15547257;28;20084;-57
2021/12/02 07:35:56;;;;;;;1999.90;999.90;;;;;;;4.38;66.48;98958.53;15547901;28;20053;-55
2021/12/02 07:43:32;;;;;;;1999.90;999.90;;;;;;;4.12;65.47;98955.94;15547885;28;20133;-54
2021/12/02 07:51:09;;;;;;;1999.90;999.90;;;;;;;4.33;65.92;98984.41;15548323;28;20061;-56
2021/12/02 07:58:46;;;;;;;1999.90;999.90;;;;;;;4.09;66.24;98985.03;15530938;28;20076;-58
2021/12/02 08:06:18;;;;;;;1999.90;999.90;;;;;;;3.98;66.07;99001.13;15548820;28;20069;-59
2021/12/02 08:13:56;;;;;;;1999.90;999.90;;;;;;;4.13;65.55;99019.09;15547107;28;20058;-59
2021/12/02 08:21:29;;;;;;;1999.90;999.90;;;;;;;4.14;63.92;99025.41;15548340;28;20080;-59
2021/12/02 08:29:04;;;;;;;1999.90;999.90;;;;;;;4.50;63.16;99047.84;15529878;28;20042;-59
2021/12/02 08:36:44;;;;;;;1999.90;999.90;;;;;;;4.14;63.01;99067.63;15552139;28;20068;-61
2021/12/02 08:44:19;;;;;;;1999.90;999.90;;;;;;;4.82;61.13;99078.69;15540419;28;20076;-59
2021/12/02 08:51:52;;;;;;;1999.90;999.90;;;;;;;5.01;58.62;99084.59;15550438;28;20054;-59
2021/12/02 08:59:26;;;;;;;1999.90;999.90;;;;;;;5.80;55.56;99099.38;15551916;28;20045;-61
2021/12/02 09:06:59;;;;;;;1999.90;999.90;;;;;;;6.00;53.54;99100.53;15557406;28;20129;-60
2021/12/02 09:14:32;;;;;;;1999.90;999.90;;;;;;;8.13;49.73;99120.28;15556091;28;20557;-61
2021/12/02 09:22:05;;;;;;;1999.90;999.90;;;;;;;7.60;49.45;99115.97;15555954;28;20251;-61
2021/12/02 09:29:41;;;;;;;1999.90;999.90;;;;;;;7.87;48.20;99134.63;15556135;28;20077;-61
2021/12/02 09:37:14;;;;;;;1999.90;999.90;;;;;;;8.65;46.23;99133.19;15554807;28;20080;-62
2021/12/02 09:44:52;;;;;;;1999.90;999.90;;;;;;;9.30;45.13;99130.78;15553017;28;20482;-61
2021/12/02 09:52:30;;;;;;;1999.90;999.90;;;;;;;8.91;45.00;99166.81;15553830;28;20038;-59
2021/12/02 10:00:06;;;;;;;1999.90;999.90;;;;;;;7.59;47.46;99144.88;15554275;28;20470;-62
2021/12/02 10:07:53;;;;;;;1999.90;999.90;;;;;;;7.37;47.86;99158.13;15552425;28;20046;-62
2021/12/02 10:15:29;;;;;;;1999.90;999.90;;;;;;;7.93;47.89;99176.84;15551734;28;20053;-61
2021/12/02 10:23:06;;;;;;;1999.90;999.90;;;;;;;7.14;49.33;99166.13;15534720;28;20480;-61
2021/12/02 10:30:43;;;;;;;1999.90;999.90;;;;;;;7.68;48.28;99176.09;15583685;28;20052;-59
2021/12/02 10:38:36;;;;;;;1999.90;999.90;;;;;;;7.43;49.00;99175.34;15553595;28;20075;-60
2021/12/02 10:46:14;;;;;;;;;;;;;;;8.86;46.59;99189.38;15552570;28;20049;-58
2021/12/02 10:53:59;;;;;;;1999.90;999.90;;;;;;;8.47;46.46;99196.66;15551300;28;19968;-61
2021/12/02 11:01:41;;;;;;;1999.90;999.90;;;;;;;8.18;46.91;99202.56;15550275;28;20087;-58
2021/12/02 11:09:24;;;;;;;1999.90;999.90;;;;;;;9.36;45.05;99215.63;15549542;28;20069;-59
2021/12/02 11:17:07;;;;;;;1999.90;999.90;;;;;;;10.20;43.42;99228.22;15547752;28;20107;-58
2021/12/02 11:24:40;;;;;;;1999.90;999.90;;;;;;;10.85;41.49;99226.38;15548565;28;20125;-59
2021/12/02 11:32:29;;;;;;;1999.90;999.90;;;;;;;12.47;37.73;99236.81;15548508;28;20058;-59
2021/12/02 11:40:05;;;;;;;1999.90;999.90;;;;;;;11.77;38.07;99218.69;15547700;28;20049;-60
2021/12/02 11:47:39;;;;;;;1999.90;999.90;;;;;;;11.45;38.24;99253.69;15535782;28;20144;-58
2021/12/02 11:55:16;;;;;;;1999.90;999.90;;;;;;;12.30;36.43;99251.41;15547509;28;20065;-59
2021/12/02 12:02:55;;;;;;;1999.90;999.90;;;;;;;11.96;36.43;99256.91;15546389;28;20044;-58
2021/12/02 12:10:33;;;;;;;1999.90;999.90;;;;;;;11.63;36.71;99254.78;15552140;28;20100;-62
2021/12/02 12:18:09;;;;;;;1999.90;999.90;;;;;;;12.60;35.24;99266.13;15558985;28;20133;-60
2021/12/02 12:25:42;;;;;;;1999.90;999.90;;;;;;;11.91;35.24;99282.41;15557685;28;20502;-58
2021/12/02 12:33:35;;;;;;;1999.90;999.90;;;;;;;13.41;33.81;99284.22;15557179;28;20045;-59
2021/12/02 12:41:11;;;;;;;;;;;;;;;13.01;34.70;99291.38;15559884;28;20068;-60
2021/12/02 12:48:46;;;;;;;1999.90;999.90;;;;;;;12.80;33.67;99303.16;15557695;28;19922;-60
2021/12/02 12:56:25;;;;;;;1999.90;999.90;;;;;;;10.12;37.65;99317.28;15558724;28;20074;-59
2021/12/02 13:04:09;;;;;;;1999.90;999.90;;;;;;;11.43;36.50;99335.06;15540646;28;20037;-57
2021/12/02 13:11:58;;;;;;;1999.90;999.90;;;;;;;10.75;36.24;99338.56;15557714;28;20057;-59
2021/12/02 13:19:31;;;;;;;1999.90;999.90;;;;;;;9.43;38.52;99338.28;15554606;28;20052;-58
2021/12/02 13:27:06;;;;;;;1999.90;999.90;;;;;;;10.02;37.98;99350.47;15556457;28;20136;-57
2021/12/02 13:34:40;;;;;;;1999.90;999.90;;;;;;;10.64;36.35;99374.63;15554950;28;20042;-57
2021/12/02 13:42:15;;;;;;;1999.90;999.90;;;;;;;7.52;42.11;99375.88;15554508;28;20233;-59
2021/12/02 13:49:51;;;;;;;1999.90;999.90;;;;;;;6.79;44.14;99384.00;15553017;28;20045;-55
2021/12/02 13:57:28;;;;;;;1999.90;999.90;;;;;;;6.34;45.50;99392.97;15552712;28;20085;-55
2021/12/02 14:05:02;;;;;;;1999.90;999.90;;;;;;;6.55;45.40;99407.66;15551808;28;20121;-57
2021/12/02 14:12:42;;;;;;;1999.90;999.90;;;;;;;6.15;46.27;99406.47;15551811;28;20418;-60
2021/12/02 14:20:18;;;;;;;1999.90;999.90;;;;;;;6.14;47.08;99427.00;15551424;28;20038;-57
2021/12/02 14:28:16;;;;;;;1999.90;999.90;;;;;;;6.19;46.70;99427.63;15552809;28;20169;-59
2021/12/02 14:35:53;;;;;;;1999.90;999.90;;;;;;;5.92;48.14;99436.41;15551125;28;20431;-55
2021/12/02 14:43:30;;;;;;;1999.90;999.90;;;;;;;5.87;47.62;99450.41;15551711;28;20042;-57
2021/12/02 14:51:07;;;;;;;1999.90;999.90;;;;;;;5.70;48.53;99467.88;15532919;28;20612;-57
2021/12/02 14:58:40;;;;;;;1999.90;999.90;;;;;;;5.49;48.25;99487.97;15538243;28;20104;-54
2021/12/02 15:06:33;;;;;;;1999.90;999.90;;;;;;;5.35;49.32;99503.94;15550331;28;20566;-55
2021/12/02 15:14:06;;;;;;;1999.90;999.90;;;;;;;5.37;49.18;99515.50;15549804;28;20053;-56
2021/12/02 15:21:41;;;;;;;;;;;;;;;5.28;49.39;99533.22;15533756;28;20634;-58
2021/12/02 15:29:13;;;;;;;;;;;;;;;4.94;51.05;99545.91;15551038;28;19921;-58
2021/12/02 15:36:48;;;;;;;1999.90;999.90;;;;;;;4.79;51.18;99568.47;15548022;28;20243;-58
2021/12/02 15:44:24;;;;;;;1999.90;999.90;;;;;;;4.70;51.78;99590.59;15537451;28;20045;-56
2021/12/02 15:51:59;;;;;;;1999.90;999.90;;;;;;;4.79;51.37;99596.94;15577654;28;20099;-58
2021/12/02 15:59:35;;;;;;;1999.90;999.90;;;;;;;4.41;52.95;99617.94;15572803;28;20057;-60
2021/12/02 16:07:11;;;;;;;1999.90;999.90;;;;;;;4.28;53.05;99636.25;15551080;28;20482;-58
2021/12/02 16:14:44;;;;;;;1999.90;999.90;;;;;;;4.16;53.47;99645.09;15567969;28;20046;-60
2021/12/02 16:22:21;;;;;;;1999.90;999.90;;;;;;;4.00;53.89;99649.41;15567168;28;20069;-58
2021/12/02 16:29:54;;;;;;;1999.90;999.90;;;;;;;4.05;54.31;99660.31;15566426;28;20453;-59
2021/12/02 16:37:28;;;;;;;1999.90;999.90;;;;;;;3.89;54.25;99672.88;15566064;28;20133;-58
2021/12/02 16:45:01;;;;;;;1999.90;999.90;;;;;;;3.80;54.41;99691.31;15566371;28;20049;-59
2021/12/02 16:52:49;;;;;;;1999.90;999.90;;;;;;;3.50;55.40;99690.06;15599030;28;20033;-59
2021/12/02 17:00:26;;;;;;;1999.90;999.90;;;;;;;3.46;56.00;99698.97;15557579;28;20042;-59
2021/12/02 17:08:00;;;;;;;1999.90;999.90;;;;;;;3.59;55.34;99716.63;15555753;28;20075;-58
2021/12/02 17:15:34;;;;;;;1999.90;999.90;;;;;;;3.48;56.05;99724.31;15554123;28;20049;-58
2021/12/02 17:23:10;;;;;;;1999.90;999.90;;;;;;;3.47;56.23;99732.91;15556120;28;20124;-55
2021/12/02 17:30:43;;;;;;;1999.90;999.90;;;;;;;3.31;57.29;99745.38;15554382;28;20124;-59
2021/12/02 17:38:18;;;;;;;1999.90;999.90;;;;;;;3.27;57.33;99750.69;15572377;22;20634;-66
2021/12/02 17:45:51;;;;;;;1999.90;999.90;;;;;;;2.96;58.19;99771.72;15600384;28;20072;-62
2021/12/02 17:53:28;;;;;;;1999.90;999.90;;;;;;;3.06;58.48;99777.84;15604185;28;20615;-63
2021/12/02 18:01:01;;;;;;;1999.90;999.90;;;;;;;3.11;58.33;99786.00;15622630;28;20072;-64
2021/12/02 18:08:35;;;;;;;1999.90;999.90;;;;;;;3.05;58.58;99805.72;15620758;28;20076;-63
2021/12/02 18:16:08;;;;;;;1999.90;999.90;;;;;;;2.82;59.48;99816.63;15590395;28;20800;-64
2021/12/02 18:23:42;;;;;;;1999.90;999.90;;;;;;;2.87;59.59;99829.47;15605679;28;20045;-62
2021/12/02 18:31:15;;;;;;;1999.90;999.90;;;;;;;2.60;60.20;99841.22;15602322;28;20038;-64
2021/12/02 18:38:49;;;;;;;1999.90;999.90;;;;;;;2.79;59.65;99825.47;15620702;28;20128;-62
2021/12/02 18:46:23;;;;;;;1999.90;999.90;;;;;;;2.66;59.90;99848.31;15601317;28;20501;-64
2021/12/02 18:53:57;;;;;;;1999.90;999.90;;;;;;;2.82;60.14;99857.13;15618043;28;20148;-62
2021/12/02 19:01:32;;;;;;;1999.90;999.90;;;;;;;2.53;60.67;99871.13;15571806;28;20037;-62
2021/12/02 19:32:40;;;;;;;1999.90;999.90;;;;;;;2.53;61.49;99920.69;15597714;28;20406;-64
2021/12/02 19:40:14;;;;;;;1999.90;999.90;;;;;;;2.29;62.04;99927.09;15598018;28;20509;-65
2021/12/02 19:47:47;;;;;;;1999.90;999.90;;;;;;;2.24;62.42;99942.84;15598182;28;20046;-63
2021/12/02 19:55:21;;;;;;;1999.90;999.90;;;;;;;2.28;62.50;99938.38;15615874;28;20391;-65
2021/12/02 20:02:54;;;;;;;1999.90;999.90;;;;;;;1.97;63.27;99952.56;15615078;28;20045;-65
2021/12/02 20:10:28;;;;;;;1999.90;999.90;;;;;;;2.09;63.53;99965.09;15598086;28;20052;-65
2021/12/02 20:18:01;;;;;;;1999.90;999.90;;;;;;;1.86;64.08;99967.53;15597715;28;20068;-64
2021/12/02 20:25:35;;;;;;;1999.90;999.90;;;;;;;2.08;63.90;99972.50;15597472;28;20042;-62
2021/12/02 20:33:08;;;;;;;1999.90;999.90;;;;;;;1.94;64.08;99979.84;15607834;28;20121;-64
2021/12/02 20:40:42;;;;;;;1999.90;999.90;;;;;;;1.83;64.94;99983.84;15625928;28;20037;-65
2021/12/02 20:48:26;;;;;;;1999.90;999.90;;;;;;;1.65;65.50;99991.72;15591328;28;20476;-64
2021/12/02 20:56:03;;;;;;;1999.90;999.90;;;;;;;1.81;65.02;99997.88;15563767;28;20046;-64
2021/12/02 21:03:36;;;;;;;1999.90;999.90;;;;;;;1.89;64.74;100001.94;15545671;28;20046;-64
2021/12/02 21:11:13;;;;;;;1999.90;999.90;;;;;;;1.64;65.82;100009.34;15593253;28;20120;-64
2021/12/02 21:18:47;;;;;;;1999.90;999.90;;;;;;;1.81;65.34;100016.31;15624625;28;20472;-65
2021/12/02 21:26:22;;;;;;;1999.90;999.90;;;;;;;1.79;65.49;100021.31;15590604;28;20049;-63
2021/12/02 21:33:56;;;;;;;1999.90;999.90;;;;;;;1.56;65.86;100029.22;15623642;28;20469;-64
2021/12/02 21:41:30;;;;;;;1999.90;999.90;;;;;;;1.63;65.92;100032.44;15606005;28;20120;-65
2021/12/02 21:49:03;;;;;;;1999.90;999.90;;;;;;;1.47;65.77;100039.22;15560662;28;20088;-63
2021/12/02 21:56:37;;;;;;;1999.90;999.90;;;;;;;1.41;66.41;100043.13;15578019;28;20043;-63
2021/12/02 22:04:14;;;;;;;1999.90;999.90;;;;;;;1.46;66.76;100048.59;15591434;28;20122;-64
2021/12/02 22:11:48;;;;;;;1999.90;999.90;;;;;;;1.39;66.41;100061.84;15620028;28;20045;-63
2021/12/02 22:19:22;;;;;;;1999.90;999.90;;;;;;;1.31;66.49;100076.19;15609768;28;20104;-64
2021/12/02 22:26:56;;;;;;;1999.90;999.90;;;;;;;1.12;67.21;100074.13;15601671;28;20455;-63
2021/12/02 22:34:30;;;;;;;1999.90;999.90;;;;;;;1.08;67.29;100097.78;15600234;28;20046;-62
2021/12/02 22:42:04;;;;;;;1999.90;999.90;;;;;;;1.01;67.19;100111.00;15539147;28;20034;-64
2021/12/02 22:49:37;;;;;;;1999.90;999.90;;;;;;;0.98;67.32;100117.09;15556818;28;20038;-64
2021/12/02 22:57:11;;;;;;;1999.90;999.90;;;;;;;0.91;67.58;100124.81;15554764;28;20061;-61
2021/12/02 23:04:43;;;;;;;1999.90;999.90;;;;;;;0.83;68.72;100123.50;15555025;28;20046;-61
2021/12/02 23:12:17;;;;;;;1999.90;999.90;;;;;;;0.71;69.00;100131.22;15585155;28;20490;-62
2021/12/02 23:19:50;;;;;;;1999.90;999.90;;;;;;;0.60;68.68;100143.38;15615800;28;20060;-65
2021/12/02 23:27:35;;;;;;;1999.90;999.90;;;;;;;0.65;69.07;100145.28;15615539;28;20297;-64
2021/12/02 23:35:08;;;;;;;1999.90;999.90;;;;;;;0.69;68.59;100147.16;15582093;28;20514;-63
2021/12/02 23:42:43;;;;;;;1999.90;999.90;;;;;;;0.67;68.77;100168.59;15629977;28;20053;-64
2021/12/02 23:50:17;;;;;;;1999.90;999.90;;;;;;;0.61;68.96;100182.63;15615203;28;20056;-63
2021/12/02 23:57:51;;;;;;;1999.90;999.90;;;;;;;0.47;69.33;100187.88;15629476;28;20046;-63
